Time;durP1;ratioP1;P1;durP2;ratioP2;P2;SDS_P1;SDS_P2;PMS_P1;PMS_P2;Temp;Humidity;BMP_temperature;BMP_pressure;BME280_temperature;BME280_humidity;BME280_pressure;Samples;Min_cycle;Max_cycle;Signal;HPM_P1;HPM_P2
2023/05/15 00:01:30;;;;;;;3.83;3.17;;;8.40;99.90;;;;;;5069146;28;20216;-68
2023/05/15 00:03:57;;;;;;;3.45;3.15;;;8.40;99.90;;;;;;5069083;28;20197;-68
2023/05/15 00:06:24;;;;;;;3.55;3.25;;;8.40;99.90;;;;;;5054575;28;20232;-68
2023/05/15 00:08:51;;;;;;;4.78;3.55;;;8.40;99.90;;;;;;5049152;28;20267;-68
2023/05/15 00:11:22;;;;;;;4.82;3.60;;;8.40;99.90;;;;;;5049006;28;20204;-68
2023/05/15 00:13:49;;;;;;;4.10;3.50;;;8.30;99.90;;;;;;5050353;28;20201;-68
2023/05/15 00:16:15;;;;;;;5.28;3.63;;;8.30;99.90;;;;;;5069090;28;20628;-68
2023/05/15 00:18:42;;;;;;;3.28;2.97;;;8.30;99.90;;;;;;5068949;28;20204;-68
2023/05/15 00:21:09;;;;;;;3.10;2.80;;;8.30;99.90;;;;;;5066064;28;20250;-68
2023/05/15 00:23:35;;;;;;;5.40;3.38;;;8.30;99.90;;;;;;5042355;28;20226;-68
2023/05/15 00:26:02;;;;;;;3.50;3.03;;;8.30;99.90;;;;;;5060053;28;20277;-68
2023/05/15 00:28:30;;;;;;;3.30;3.00;;;8.30;99.90;;;;;;5061831;28;20224;-68
2023/05/15 00:30:57;;;;;;;4.25;2.90;;;8.30;99.90;;;;;;5068477;28;20215;-68
2023/05/15 00:33:23;;;;;;;5.70;2.97;;;8.30;99.90;;;;;;5066730;28;20204;-68
2023/05/15 00:35:50;;;;;;;3.72;2.92;;;8.40;99.90;;;;;;5060369;28;20205;-68
2023/05/15 00:38:17;;;;;;;6.45;3.20;;;8.40;99.90;;;;;;5071090;28;20296;-68
2023/05/15 00:40:45;;;;;;;4.45;3.10;;;8.50;99.90;;;;;;5070860;28;20232;-68
2023/05/15 00:43:12;;;;;;;3.40;3.10;;;8.50;99.90;;;;;;5063339;28;20242;-68
2023/05/15 00:45:43;;;;;;;3.00;2.70;;;8.60;99.90;;;;;;5071525;28;20200;-68
2023/05/15 00:48:10;;;;;;;3.70;3.35;;;8.70;99.90;;;;;;5072518;28;20201;-68
2023/05/15 00:50:38;;;;;;;4.82;3.60;;;8.70;99.90;;;;;;5071778;28;20254;-68
2023/05/15 00:53:05;;;;;;;5.00;3.47;;;8.70;99.90;;;;;;5072094;28;20197;-68
2023/05/15 00:55:33;;;;;;;3.40;3.10;;;8.80;99.90;;;;;;5071715;28;20615;-68
2023/05/15 00:58:01;;;;;;;3.10;2.80;;;8.80;99.90;;;;;;5071808;28;20707;-68
2023/05/15 01:00:29;;;;;;;3.88;2.92;;;8.80;99.90;;;;;;5071731;28;20667;-68
2023/05/15 01:02:57;;;;;;;4.35;2.90;;;8.90;99.90;;;;;;5071631;28;20216;-68
2023/05/15 01:05:24;;;;;;;3.70;2.75;;;8.90;99.90;;;;;;5071435;28;20200;-68
2023/05/15 01:07:56;;;;;;;3.75;3.30;;;8.90;99.90;;;;;;5071479;28;20226;-68
2023/05/15 01:10:23;;;;;;;3.70;3.30;;;8.90;99.90;;;;;;5070979;28;20216;-68
2023/05/15 01:12:53;;;;;;;3.55;3.20;;;8.90;99.90;;;;;;5071639;28;20197;-68
2023/05/15 01:15:19;;;;;;;3.30;3.00;;;8.90;99.90;;;;;;5066246;28;20211;-68
2023/05/15 01:17:46;;;;;;;3.28;2.95;;;9.00;99.90;;;;;;5051712;28;20229;-68
2023/05/15 01:20:18;;;;;;;3.70;3.30;;;9.00;99.90;;;;;;5051270;28;20197;-68
2023/05/15 01:22:51;;;;;;;3.03;2.80;;;9.00;99.90;;;;;;5051414;28;20252;-68
2023/05/15 01:25:45;;;;;;;3.42;2.88;;;8.90;99.90;;;;;;5051037;28;20208;-68
2023/05/15 01:28:17;;;;;;;3.33;3.03;;;8.90;99.90;;;;;;5047816;28;20196;-68
2023/05/15 01:30:45;;;;;;;3.05;2.75;;;9.00;99.90;;;;;;5071085;28;20613;-68
2023/05/15 01:33:18;;;;;;;4.15;3.20;;;9.00;99.90;;;;;;5051229;28;20193;-68
2023/05/15 01:35:50;;;;;;;2.80;2.55;;;9.00;99.90;;;;;;5050908;28;20201;-68
2023/05/15 01:38:23;;;;;;;3.67;3.05;;;9.00;99.90;;;;;;5051259;28;20208;-68
2023/05/15 01:40:57;;;;;;;3.22;2.92;;;9.00;99.90;;;;;;5050825;28;20201;-68
2023/05/15 01:43:29;;;;;;;3.17;2.55;;;8.90;99.90;;;;;;5050988;28;20221;-68
2023/05/15 01:45:57;;;;;;;2.67;2.47;;;9.00;99.90;;;;;;5050620;28;20263;-68
2023/05/15 01:48:26;;;;;;;3.50;3.20;;;9.00;99.90;;;;;;5051045;28;20676;-68
2023/05/15 01:50:57;;;;;;;3.47;3.10;;;9.00;99.90;;;;;;5050700;28;20239;-68
2023/05/15 01:53:25;;;;;;;4.57;3.15;;;9.00;99.90;;;;;;5050709;28;20201;-68
2023/05/15 01:55:53;;;;;;;3.80;2.85;;;9.00;99.90;;;;;;5051421;28;20534;-68
2023/05/15 01:58:20;;;;;;;3.58;2.97;;;9.00;99.90;;;;;;5065957;28;20224;-68
2023/05/15 02:00:49;;;;;;;3.97;3.58;;;9.00;99.90;;;;;;5058768;28;20200;-68
2023/05/15 02:03:16;;;;;;;3.97;3.58;;;9.00;99.90;;;;;;5070457;28;20251;-68
2023/05/15 02:05:43;;;;;;;5.60;3.20;;;9.00;99.90;;;;;;5070222;28;20204;-68
2023/05/15 02:08:11;;;;;;;5.25;3.25;;;9.00;99.90;;;;;;5059501;28;20209;-68
2023/05/15 02:10:39;;;;;;;3.83;3.40;;;9.10;99.90;;;;;;5050409;28;20209;-68
2023/05/15 02:13:07;;;;;;;3.40;3.10;;;9.10;99.90;;;;;;5050186;28;20259;-68
2023/05/15 02:15:35;;;;;;;4.63;3.45;;;9.20;99.90;;;;;;5050119;28;20215;-68
2023/05/15 02:18:03;;;;;;;4.07;3.55;;;9.20;99.90;;;;;;5049476;28;20579;-68
2023/05/15 02:20:30;;;;;;;4.07;3.67;;;9.20;99.90;;;;;;5050097;28;20205;-68
2023/05/15 02:22:56;;;;;;;3.78;3.15;;;9.30;99.90;;;;;;5048264;28;20218;-68
2023/05/15 02:25:34;;;;;;;3.35;3.05;;;9.30;99.90;;;;;;5049773;28;20665;-68
2023/05/15 02:28:06;;;;;;;4.00;3.35;;;9.30;99.90;;;;;;5049724;28;20220;-68
2023/05/15 02:30:40;;;;;;;4.47;4.07;;;9.30;99.90;;;;;;5050208;28;20201;-68
2023/05/15 02:33:18;;;;;;;3.47;3.17;;;9.40;99.90;;;;;;5049994;28;20247;-68
2023/05/15 02:35:51;;;;;;;4.18;3.40;;;9.30;99.90;;;;;;5049661;28;20224;-68
2023/05/15 02:38:23;;;;;;;4.03;2.90;;;9.30;99.90;;;;;;5050189;28;20208;-68
2023/05/15 02:40:51;;;;;;;4.97;4.45;;;9.30;99.90;;;;;;5049592;28;20605;-68
2023/05/15 02:43:19;;;;;;;5.13;3.72;;;9.30;99.90;;;;;;5050092;28;20217;-68
2023/05/15 02:45:47;;;;;;;5.38;3.63;;;9.30;99.90;;;;;;5049356;28;20208;-68
2023/05/15 02:48:15;;;;;;;4.20;3.42;;;9.30;99.90;;;;;;5041907;28;20197;-68
2023/05/15 02:50:43;;;;;;;4.18;3.45;;;9.20;99.90;;;;;;5049443;28;20208;-68
2023/05/15 02:53:13;;;;;;;4.95;2.72;;;9.20;99.90;;;;;;5049648;28;20193;-68
2023/05/15 02:55:40;;;;;;;3.40;2.88;;;9.10;99.90;;;;;;5049649;28;20255;-68
2023/05/15 02:58:06;;;;;;;5.10;3.33;;;9.10;99.90;;;;;;5049914;28;20227;-68
2023/05/15 03:00:33;;;;;;;4.10;3.08;;;9.10;99.90;;;;;;5049783;28;20216;-68
2023/05/15 03:03:00;;;;;;;5.05;3.90;;;9.10;99.90;;;;;;5049481;28;20224;-68
2023/05/15 03:05:28;;;;;;;4.63;4.05;;;9.10;99.90;;;;;;5049654;28;20552;-68
2023/05/15 03:07:55;;;;;;;3.47;3.17;;;9.10;99.90;;;;;;5049364;28;20224;-68
2023/05/15 03:10:23;;;;;;;3.67;3.10;;;9.10;99.90;;;;;;5049632;28;20200;-68
2023/05/15 03:12:49;;;;;;;3.72;3.42;;;9.20;99.90;;;;;;5049591;28;20688;-68
2023/05/15 03:15:16;;;;;;;3.72;3.22;;;9.20;99.90;;;;;;5049601;28;20208;-68
2023/05/15 03:17:43;;;;;;;3.75;3.10;;;9.20;99.90;;;;;;5049607;28;20600;-69
2023/05/15 03:20:10;;;;;;;3.20;2.90;;;9.30;99.90;;;;;;5049345;28;20221;-69
2023/05/15 03:22:38;;;;;;;7.85;2.90;;;9.30;99.90;;;;;;5056109;28;20240;-68
2023/05/15 03:25:06;;;;;;;3.88;3.40;;;9.40;99.90;;;;;;5068983;28;20204;-68
2023/05/15 03:27:32;;;;;;;5.30;2.88;;;9.40;99.90;;;;;;5069440;28;20224;-69
2023/05/15 03:29:59;;;;;;;3.53;3.00;;;9.50;99.90;;;;;;5070777;28;20201;-68
2023/05/15 03:32:26;;;;;;;3.25;2.92;;;9.50;99.90;;;;;;5073573;28;20203;-68
2023/05/15 03:34:52;;;;;;;3.78;2.90;;;9.60;99.90;;;;;;5064372;28;20603;-68
2023/05/15 03:37:19;;;;;;;4.38;3.17;;;9.60;99.90;;;;;;5073564;28;20256;-68
2023/05/15 03:39:47;;;;;;;4.45;3.42;;;9.60;99.90;;;;;;5073214;28;20207;-67
2023/05/15 03:42:14;;;;;;;3.97;3.47;;;9.70;99.90;;;;;;5073215;28;20257;-67
2023/05/15 03:44:41;;;;;;;4.55;3.55;;;9.80;99.90;;;;;;5072778;28;20247;-70
2023/05/15 03:47:07;;;;;;;3.33;3.03;;;9.80;99.90;;;;;;5052964;28;20232;-69
2023/05/15 03:49:34;;;;;;;2.90;2.65;;;9.90;99.90;;;;;;5052925;28;20212;-70
2023/05/15 03:52:01;;;;;;;5.07;3.47;;;9.90;99.90;;;;;;5052773;28;20201;-70
2023/05/15 03:54:27;;;;;;;3.50;2.88;;;10.00;99.90;;;;;;5052772;28;20205;-70
2023/05/15 03:56:56;;;;;;;3.88;3.45;;;10.00;99.90;;;;;;5052526;28;20221;-70
2023/05/15 03:59:23;;;;;;;4.72;4.00;;;10.00;99.90;;;;;;5052947;28;20864;-67
2023/05/15 04:01:49;;;;;;;3.30;3.00;;;10.00;99.90;;;;;;5052676;28;20263;-67
2023/05/15 04:04:16;;;;;;;3.65;3.35;;;10.00;99.90;;;;;;5052286;28;20235;-67
2023/05/15 04:06:43;;;;;;;3.95;3.10;;;10.10;99.90;;;;;;5052468;28;20225;-67
2023/05/15 04:09:10;;;;;;;3.70;3.10;;;10.10;99.90;;;;;;5052472;28;20292;-67
2023/05/15 04:11:37;;;;;;;3.80;3.00;;;10.10;99.90;;;;;;5052857;28;20679;-68
2023/05/15 04:14:05;;;;;;;3.63;3.33;;;10.10;99.90;;;;;;5051967;28;20664;-67
2023/05/15 04:16:32;;;;;;;4.13;3.22;;;10.20;99.90;;;;;;5052669;28;20225;-67
2023/05/15 04:18:58;;;;;;;3.38;3.05;;;10.20;99.90;;;;;;5052106;28;20209;-67
2023/05/15 04:21:25;;;;;;;3.45;3.15;;;10.30;99.90;;;;;;5052495;28;20197;-67
2023/05/15 04:23:52;;;;;;;3.85;3.03;;;10.30;99.90;;;;;;5050701;28;20225;-67
2023/05/15 04:26:18;;;;;;;3.60;2.90;;;10.40;99.90;;;;;;5052683;28;20221;-67
2023/05/15 04:28:45;;;;;;;2.92;2.70;;;10.40;99.90;;;;;;5051221;28;20610;-67
2023/05/15 04:31:13;;;;;;;4.50;3.03;;;10.40;99.90;;;;;;5051030;28;20268;-67
2023/05/15 04:33:40;;;;;;;3.80;3.40;;;10.50;99.90;;;;;;5052228;28;20212;-67
2023/05/15 04:36:08;;;;;;;3.55;3.25;;;10.50;99.90;;;;;;5051609;28;20225;-67
2023/05/15 04:38:34;;;;;;;3.95;3.55;;;10.60;99.90;;;;;;5052430;28;20212;-67
2023/05/15 04:41:01;;;;;;;4.10;2.90;;;10.60;99.90;;;;;;5051109;28;20212;-67
2023/05/15 04:43:28;;;;;;;2.92;2.63;;;10.60;99.90;;;;;;5052006;28;20699;-67
2023/05/15 04:45:55;;;;;;;3.58;3.20;;;10.70;99.90;;;;;;5061463;28;20679;-67
2023/05/15 04:48:22;;;;;;;3.60;3.30;;;10.70;99.90;;;;;;5072076;28;20196;-67
2023/05/15 04:50:50;;;;;;;3.55;2.95;;;10.80;99.90;;;;;;5071386;28;20200;-67
2023/05/15 04:53:17;;;;;;;4.22;3.17;;;10.80;99.90;;;;;;5071767;28;20334;-67
2023/05/15 04:55:44;;;;;;;4.15;3.40;;;10.80;99.90;;;;;;5071381;28;20201;-68
2023/05/15 04:58:10;;;;;;;3.67;3.28;;;10.90;99.90;;;;;;5071787;28;20570;-67
2023/05/15 05:00:37;;;;;;;4.65;3.78;;;11.00;99.90;;;;;;5072025;28;20223;-67
2023/05/15 05:03:04;;;;;;;3.75;3.45;;;11.00;99.90;;;;;;5072128;28;20247;-68
2023/05/15 05:05:32;;;;;;;4.35;3.78;;;11.10;99.90;;;;;;5071844;28;20220;-68
2023/05/15 05:07:59;;;;;;;3.90;3.47;;;11.10;99.90;;;;;;5070396;28;20227;-67
2023/05/15 05:10:25;;;;;;;3.47;3.17;;;11.20;99.90;;;;;;5070990;28;20575;-67
2023/05/15 05:12:52;;;;;;;4.15;3.75;;;11.30;99.90;;;;;;5070896;28;20211;-67
2023/05/15 05:15:19;;;;;;;5.32;3.58;;;11.30;99.90;;;;;;5070951;28;20196;-70
2023/05/15 05:17:46;;;;;;;4.60;4.20;;;11.30;99.90;;;;;;5056245;28;20217;-70
2023/05/15 05:20:13;;;;;;;4.85;4.28;;;11.40;99.90;;;;;;5050998;28;20203;-70
2023/05/15 05:22:41;;;;;;;8.98;4.50;;;11.50;99.90;;;;;;5052033;28;20290;-71
2023/05/15 05:25:08;;;;;;;4.38;3.97;;;11.50;99.90;;;;;;5050845;28;20582;-69
2023/05/15 05:27:35;;;;;;;4.78;3.92;;;11.60;99.90;;;;;;5064691;28;20220;-69
2023/05/15 05:30:02;;;;;;;4.85;4.18;;;11.70;99.90;;;;;;5070371;28;20204;-69
2023/05/15 05:32:28;;;;;;;5.28;4.55;;;11.80;99.90;;;;;;5051389;28;20652;-69
2023/05/15 05:34:55;;;;;;;4.75;3.67;;;11.80;99.90;;;;;;5051879;28;20208;-69
2023/05/15 05:37:22;;;;;;;3.75;3.45;;;11.90;99.90;;;;;;5065340;28;20212;-69
2023/05/15 05:39:50;;;;;;;4.72;4.13;;;11.90;99.90;;;;;;5070409;28;20204;-69
2023/05/15 05:42:16;;;;;;;4.60;4.15;;;12.00;99.90;;;;;;5070679;28;20201;-69
2023/05/15 05:44:43;;;;;;;4.80;4.30;;;12.10;99.90;;;;;;5069079;28;20224;-69
2023/05/15 05:47:10;;;;;;;6.38;4.38;;;12.10;99.90;;;;;;5060720;28;20479;-70
2023/05/15 05:49:36;;;;;;;4.35;3.95;;;12.10;99.90;;;;;;5064042;28;20199;-67
2023/05/15 05:52:08;;;;;;;4.97;4.30;;;12.10;99.90;;;;;;5061637;28;20216;-67
2023/05/15 05:54:34;;;;;;;4.85;4.35;;;12.20;99.90;;;;;;5060930;28;20209;-67
2023/05/15 05:57:03;;;;;;;5.22;4.00;;;12.30;99.90;;;;;;5049929;28;20217;-67
2023/05/15 05:59:30;;;;;;;4.20;3.80;;;12.30;99.90;;;;;;5057644;28;20208;-67
2023/05/15 06:01:57;;;;;;;4.78;3.70;;;12.30;99.90;;;;;;5054544;28;20200;-67
2023/05/15 06:04:23;;;;;;;5.03;4.03;;;12.40;99.90;;;;;;5052276;28;20221;-66
2023/05/15 06:06:50;;;;;;;4.05;3.65;;;12.40;99.90;;;;;;5050624;28;20217;-67
2023/05/15 06:09:17;;;;;;;5.25;4.00;;;12.30;99.90;;;;;;5057959;28;20254;-67
2023/05/15 06:11:44;;;;;;;4.70;3.97;;;12.40;99.90;;;;;;5050370;28;20201;-67
2023/05/15 06:14:12;;;;;;;4.20;3.80;;;12.40;99.90;;;;;;5061005;28;20197;-67
2023/05/15 06:16:39;;;;;;;4.63;4.10;;;12.40;99.90;;;;;;5049766;28;20274;-67
2023/05/15 06:19:07;;;;;;;3.80;3.40;;;12.50;99.90;;;;;;5050446;28;20220;-67
2023/05/15 06:21:34;;;;;;;4.70;3.97;;;12.60;99.90;;;;;;5070140;28;20212;-67
2023/05/15 06:24:02;;;;;;;3.95;3.60;;;12.70;99.90;;;;;;5061376;28;20274;-66
2023/05/15 06:26:30;;;;;;;4.72;3.90;;;12.90;99.90;;;;;;5069880;28;20893;-67
2023/05/15 06:28:58;;;;;;;4.80;4.28;;;13.00;99.90;;;;;;5062730;28;20201;-67
2023/05/15 06:31:27;;;;;;;4.73;4.30;;;13.10;99.90;;;;;;5070021;28;20249;-67
2023/05/15 06:33:54;;;;;;;4.80;4.30;;;13.20;99.90;;;;;;5062527;28;20505;-67
2023/05/15 06:36:21;;;;;;;4.95;4.25;;;13.30;99.90;;;;;;5046609;28;20704;-67
2023/05/15 06:38:48;;;;;;;5.47;4.10;;;13.40;99.90;;;;;;5045334;28;20207;-68
2023/05/15 06:41:16;;;;;;;4.67;4.20;;;13.50;99.90;;;;;;5050015;28;20470;-67
2023/05/15 06:43:43;;;;;;;5.17;4.67;;;13.70;99.90;;;;;;5050394;28;20479;-67
2023/05/15 06:46:10;;;;;;;10.40;4.40;;;13.80;99.90;;;;;;5059164;28;20482;-67
2023/05/15 06:48:38;;;;;;;6.35;4.20;;;13.90;99.90;;;;;;5069792;28;21000;-68
2023/05/15 06:51:06;;;;;;;5.10;4.50;;;13.90;99.90;;;;;;5069829;28;20308;-66
2023/05/15 06:53:33;;;;;;;4.03;3.57;;;14.00;99.90;;;;;;5042662;28;20459;-66
2023/05/15 06:56:00;;;;;;;4.37;3.97;;;14.10;99.90;;;;;;5049710;28;20466;-67
2023/05/15 06:58:27;;;;;;;5.27;3.70;;;14.20;99.90;;;;;;5058481;28;20838;-66
2023/05/15 07:00:53;;;;;;;3.93;3.60;;;14.30;99.90;;;;;;5049808;28;20866;-67
2023/05/15 07:03:20;;;;;;;5.70;3.77;;;14.40;99.90;;;;;;5060904;28;20462;-67
2023/05/15 07:05:48;;;;;;;3.97;3.67;;;14.40;99.90;;;;;;5059540;28;20466;-66
2023/05/15 07:08:15;;;;;;;5.00;4.20;;;14.50;99.90;;;;;;5053953;28;20467;-66
2023/05/15 07:10:41;;;;;;;3.53;3.23;;;14.60;99.90;;;;;;5053999;28;20459;-67
2023/05/15 07:13:08;;;;;;;3.23;2.90;;;14.70;99.90;;;;;;5053647;28;20463;-67
2023/05/15 07:15:35;;;;;;;4.23;3.83;;;14.80;99.90;;;;;;5058309;28;20454;-67
2023/05/15 07:18:01;;;;;;;3.57;3.23;;;14.90;99.90;;;;;;5057406;28;20487;-67
2023/05/15 07:20:28;;;;;;;3.73;3.37;;;15.00;99.90;;;;;;5069892;28;20474;-66
2023/05/15 07:22:56;;;;;;;4.67;2.97;;;14.90;99.90;;;;;;5062483;28;20459;-67
2023/05/15 07:25:23;;;;;;;3.17;2.73;;;15.00;99.90;;;;;;5063794;28;20567;-67
2023/05/15 07:27:50;;;;;;;3.73;3.43;;;15.20;99.90;;;;;;5059441;28;20490;-67
2023/05/15 07:30:16;;;;;;;3.10;2.90;;;15.30;99.90;;;;;;5053310;28;20474;-67
2023/05/15 07:32:43;;;;;;;4.33;3.47;;;15.30;99.90;;;;;;5053617;28;20463;-67
2023/05/15 07:35:11;;;;;;;3.20;2.90;;;15.50;99.90;;;;;;5053931;28;20466;-67
2023/05/15 07:37:38;;;;;;;3.93;3.30;;;15.60;99.90;;;;;;5058828;28;20547;-67
2023/05/15 07:40:07;;;;;;;3.30;3.00;;;15.60;99.90;;;;;;5072781;28;21122;-68
2023/05/15 07:42:34;;;;;;;4.13;3.37;;;15.80;99.90;;;;;;5073480;28;20489;-67
2023/05/15 07:45:01;;;;;;;4.70;3.63;;;15.90;99.90;;;;;;5065480;28;20475;-67
2023/05/15 07:47:28;;;;;;;2.87;2.60;;;15.90;99.90;;;;;;5061233;28;20501;-67
2023/05/15 07:49:54;;;;;;;3.67;2.70;;;16.00;99.90;;;;;;5053085;28;20463;-67
2023/05/15 07:52:21;;;;;;;3.63;2.33;;;16.00;99.90;;;;;;5052891;28;20970;-67
2023/05/15 07:54:48;;;;;;;3.00;2.70;;;16.10;99.90;;;;;;5052959;28;20474;-67
2023/05/15 07:57:16;;;;;;;2.93;2.70;;;16.00;99.90;;;;;;5052579;28;20486;-67
2023/05/15 07:59:42;;;;;;;3.40;3.10;;;16.00;99.90;;;;;;5053231;28;20459;-67
2023/05/15 08:02:09;;;;;;;2.97;2.67;;;16.10;99.90;;;;;;5050192;28;20967;-67
2023/05/15 08:04:36;;;;;;;2.80;2.57;;;16.20;99.90;;;;;;5054231;28;20501;-67
2023/05/15 08:07:03;;;;;;;2.70;2.50;;;16.30;99.90;;;;;;5047988;28;20864;-67
2023/05/15 08:09:29;;;;;;;3.23;2.83;;;16.40;99.90;;;;;;5042512;28;20546;-66
2023/05/15 08:11:56;;;;;;;3.80;3.37;;;16.40;99.90;;;;;;5051384;28;20475;-67
2023/05/15 08:14:24;;;;;;;2.67;2.30;;;16.60;99.90;;;;;;5050434;28;20966;-67
2023/05/15 08:16:51;;;;;;;3.30;2.53;;;16.70;99.90;;;;;;5050578;28;21024;-67
2023/05/15 08:19:18;;;;;;;2.73;2.50;;;17.00;99.90;;;;;;5050626;28;20873;-68
2023/05/15 08:21:44;;;;;;;2.50;2.30;;;17.20;99.90;;;;;;5052856;28;20490;-67
2023/05/15 08:24:11;;;;;;;3.10;2.70;;;17.30;99.90;;;;;;5060635;28;20489;-68
2023/05/15 08:26:38;;;;;;;2.53;2.20;;;17.60;99.90;;;;;;5072190;28;20486;-67
2023/05/15 08:29:05;;;;;;;3.03;2.80;;;17.90;99.90;;;;;;5058511;28;20459;-68
2023/05/15 08:31:33;;;;;;;3.60;2.77;;;18.10;99.90;;;;;;5052326;28;21239;-68
2023/05/15 08:33:59;;;;;;;3.23;2.97;;;18.30;99.90;;;;;;5052351;28;20467;-67
2023/05/15 08:36:26;;;;;;;2.90;2.70;;;18.40;99.90;;;;;;5052010;28;20479;-68
2023/05/15 08:38:53;;;;;;;2.70;2.50;;;18.40;99.90;;;;;;5052056;28;20470;-68
2023/05/15 08:41:30;;;;;;;3.37;3.07;;;18.60;99.90;;;;;;5069738;28;20477;-68
2023/05/15 08:43:58;;;;;;;3.40;3.10;;;18.70;99.90;;;;;;5071941;28;20466;-68
2023/05/15 08:46:25;;;;;;;2.67;2.47;;;18.70;99.90;;;;;;5071189;28;20490;-68
2023/05/15 08:48:54;;;;;;;3.03;2.80;;;18.40;99.90;;;;;;5072345;28;20459;-68
2023/05/15 08:51:22;;;;;;;3.20;2.90;;;18.40;99.90;;;;;;5053040;28;20528;-68
2023/05/15 08:53:49;;;;;;;2.60;2.40;;;18.50;99.90;;;;;;5051634;28;20840;-67
2023/05/15 08:56:17;;;;;;;2.60;2.40;;;18.80;99.90;;;;;;5051710;28;20486;-67
2023/05/15 08:58:45;;;;;;;2.27;2.03;;;18.90;99.90;;;;;;5052290;28;20466;-67
2023/05/15 09:01:12;;;;;;;2.83;2.63;;;18.90;99.90;;;;;;5067762;28;20465;-67
2023/05/15 09:03:39;;;;;;;3.47;3.17;;;18.90;99.90;;;;;;5055965;28;20993;-67
2023/05/15 09:06:09;;;;;;;2.73;2.53;;;18.90;99.90;;;;;;5071022;28;20482;-67
2023/05/15 09:08:36;;;;;;;3.20;2.53;;;19.20;99.90;;;;;;5071826;28;20911;-67
2023/05/15 09:11:06;;;;;;;2.93;2.73;;;19.70;99.90;;;;;;5064190;28;20487;-67
2023/05/15 09:13:33;;;;;;;2.70;2.50;;;19.90;99.90;;;;;;5051269;28;20550;-68
2023/05/15 09:16:00;;;;;;;3.10;2.90;;;20.10;99.90;;;;;;5050583;28;21008;-68
2023/05/15 09:18:27;;;;;;;3.20;2.97;;;20.00;99.90;;;;;;5050826;28;20475;-68
2023/05/15 09:20:54;;;;;;;2.90;2.70;;;19.80;99.90;;;;;;5050607;28;21168;-68
2023/05/15 09:23:27;;;;;;;2.80;2.53;;;20.10;99.90;;;;;;5068577;28;21210;-68
2023/05/15 09:25:55;;;;;;;3.00;2.80;;;20.20;99.90;;;;;;5062408;28;20474;-67
2023/05/15 09:28:27;;;;;;;3.17;2.87;;;20.40;99.90;;;;;;5062727;28;20886;-67
2023/05/15 09:30:59;;;;;;;3.10;2.80;;;20.90;99.90;;;;;;5071095;28;20454;-67
2023/05/15 09:33:31;;;;;;;2.57;2.37;;;21.30;99.90;;;;;;5071179;28;20466;-68
2023/05/15 09:35:58;;;;;;;2.73;2.53;;;21.70;99.90;;;;;;5070806;28;20462;-68
2023/05/15 09:38:26;;;;;;;3.13;2.83;;;21.80;99.90;;;;;;5069252;28;20468;-68
2023/05/15 09:41:02;;;;;;;4.73;3.23;;;21.30;99.90;;;;;;5064573;28;20458;-68
2023/05/15 09:43:29;;;;;;;3.57;3.27;;;20.50;99.90;;;;;;5052253;28;20897;-68
2023/05/15 09:45:57;;;;;;;3.97;3.10;;;19.50;99.90;;;;;;5056607;28;21005;-67
2023/05/15 09:48:24;;;;;;;3.30;2.80;;;18.90;99.90;;;;;;5070878;28;21287;-68
2023/05/15 09:50:52;;;;;;;3.37;3.07;;;18.50;99.90;;;;;;5057861;28;20466;-68
2023/05/15 09:53:19;;;;;;;2.63;2.43;;;18.10;99.90;;;;;;5067066;28;20458;-67
2023/05/15 09:55:49;;;;;;;3.80;3.50;;;17.80;99.90;;;;;;5050862;28;20525;-68
2023/05/15 09:58:17;;;;;;;3.60;3.30;;;17.80;99.90;;;;;;5050673;28;20456;-67
2023/05/15 10:00:45;;;;;;;3.40;3.10;;;17.90;99.90;;;;;;5063660;28;20550;-68
2023/05/15 10:03:13;;;;;;;3.60;3.30;;;18.40;99.90;;;;;;5062947;28;20471;-68
2023/05/15 10:05:41;;;;;;;2.93;2.73;;;19.20;99.90;;;;;;5050367;28;20503;-68
2023/05/15 10:08:08;;;;;;;3.30;3.00;;;20.10;99.90;;;;;;5059261;28;20513;-68
2023/05/15 10:10:35;;;;;;;3.07;2.77;;;20.90;99.90;;;;;;5062243;28;20458;-68
2023/05/15 10:13:04;;;;;;;3.30;2.50;;;21.50;99.90;;;;;;5056090;28;20463;-68
2023/05/15 10:15:32;;;;;;;2.80;2.60;;;22.20;99.90;;;;;;5050247;28;20455;-68
2023/05/15 10:18:00;;;;;;;2.90;2.70;;;22.80;99.90;;;;;;5050524;28;20490;-68
2023/05/15 10:20:27;;;;;;;2.60;2.40;;;23.40;99.90;;;;;;5050312;28;20524;-68
2023/05/15 10:22:55;;;;;;;2.63;2.43;;;23.60;99.90;;;;;;5056186;28;20492;-67
2023/05/15 10:25:31;;;;;;;2.53;2.33;;;23.10;99.90;;;;;;5060636;28;20494;-67
2023/05/15 10:27:59;;;;;;;2.40;2.20;;;22.40;99.90;;;;;;5056587;28;20489;-67
2023/05/15 10:30:28;;;;;;;4.43;2.40;;;21.80;99.90;;;;;;5053472;28;20532;-67
2023/05/15 10:32:56;;;;;;;2.60;2.40;;;21.70;99.90;;;;;;5070611;28;20848;-68
2023/05/15 10:35:23;;;;;;;2.60;2.40;;;22.10;99.90;;;;;;5069635;28;20462;-67
2023/05/15 10:37:50;;;;;;;3.00;2.57;;;22.60;99.90;;;;;;5063099;28;20480;-68
2023/05/15 10:40:17;;;;;;;3.00;2.70;;;23.20;99.90;;;;;;5058322;28;20463;-67
2023/05/15 10:42:46;;;;;;;2.90;2.70;;;23.80;99.90;;;;;;5062285;28;20546;-68
2023/05/15 10:45:13;;;;;;;3.70;2.20;;;24.60;99.90;;;;;;5053380;28;20485;-68
2023/05/15 10:47:43;;;;;;;3.27;2.97;;;25.30;99.90;;;;;;5056162;28;20482;-68
2023/05/15 10:50:12;;;;;;;2.70;2.50;;;25.10;99.20;;;;;;5040175;28;20466;-68
2023/05/15 10:52:40;;;;;;;2.20;2.00;;;24.30;98.40;;;;;;5069270;28;20995;-68
2023/05/15 10:55:08;;;;;;;3.23;2.43;;;23.30;97.80;;;;;;5068758;28;20460;-68
2023/05/15 10:57:35;;;;;;;2.57;2.37;;;22.80;99.90;;;;;;5069751;28;20848;-68
2023/05/15 11:00:04;;;;;;;2.63;2.43;;;22.40;99.80;;;;;;5055764;28;20847;-68
2023/05/15 11:02:37;;;;;;;2.70;2.50;;;21.90;99.90;;;;;;5057088;28;20470;-68
2023/05/15 11:05:06;;;;;;;3.47;2.30;;;21.50;99.90;;;;;;5055808;28;20951;-68
2023/05/15 11:07:33;;;;;;;3.27;2.47;;;21.30;99.90;;;;;;5043144;28;20518;-68
2023/05/15 11:10:00;;;;;;;2.43;2.30;;;21.90;99.90;;;;;;5053918;28;20464;-70
2023/05/15 11:12:56;;;;;;;2.60;2.40;;;22.90;99.90;;;;;;5049751;28;20471;-68
2023/05/15 11:15:24;;;;;;;2.20;1.73;;;24.00;98.10;;;;;;5049207;28;20591;-67
2023/05/15 11:18:04;;;;;;;2.20;2.00;;;24.60;97.70;;;;;;5044829;28;20860;-67
2023/05/15 11:20:39;;;;;;;1.83;1.73;;;25.50;97.40;;;;;;5043315;28;20465;-67
2023/05/15 11:23:05;;;;;;;1.93;1.80;;;25.90;96.80;;;;;;5059941;28;20513;-68
2023/05/15 11:25:34;;;;;;;2.87;1.90;;;25.80;94.10;;;;;;5050823;28;20481;-68
2023/05/15 11:28:02;;;;;;;2.33;2.13;;;26.30;96.10;;;;;;5063363;28;20485;-68
2023/05/15 11:30:36;;;;;;;2.37;2.17;;;26.50;94.10;;;;;;5060593;28;20969;-68
2023/05/15 11:33:07;;;;;;;3.37;2.37;;;26.40;96.00;;;;;;5069315;28;20526;-68
2023/05/15 11:35:37;;;;;;;2.10;1.90;;;25.50;94.30;;;;;;5068888;28;20554;-67
2023/05/15 11:38:10;;;;;;;2.60;2.00;;;24.70;95.10;;;;;;5068931;28;20485;-67
2023/05/15 11:40:45;;;;;;;2.07;1.87;;;23.90;95.80;;;;;;5059237;28;20521;-68
2023/05/15 11:43:18;;;;;;;2.90;1.90;;;23.10;96.20;;;;;;5054665;28;20465;-68
2023/05/15 11:45:47;;;;;;;2.60;2.13;;;22.90;96.80;;;;;;5068125;28;20917;-67
2023/05/15 11:48:16;;;;;;;2.03;1.87;;;22.50;96.30;;;;;;5053679;28;20952;-68
2023/05/15 11:50:46;;;;;;;2.83;1.70;;;22.80;97.20;;;;;;5058887;28;20465;-68
2023/05/15 11:53:13;;;;;;;2.00;1.90;;;23.20;96.20;;;;;;5060100;28;20934;-67
2023/05/15 11:55:42;;;;;;;2.10;1.90;;;23.80;95.30;;;;;;5072434;28;20462;-68
2023/05/15 11:58:12;;;;;;;1.93;1.67;;;24.40;95.50;;;;;;5072717;28;20561;-68
2023/05/15 12:00:39;;;;;;;2.03;1.77;;;24.60;93.80;;;;;;5048939;28;20508;-67
2023/05/15 12:03:06;;;;;;;3.60;2.30;;;24.00;93.90;;;;;;5046980;28;21056;-68
2023/05/15 12:05:33;;;;;;;2.20;2.00;;;23.20;94.90;;;;;;5068477;28;20499;-68
2023/05/15 12:08:01;;;;;;;4.13;2.30;;;22.60;96.00;;;;;;5066161;28;20499;-68
2023/05/15 12:10:31;;;;;;;2.27;2.03;;;22.10;96.40;;;;;;5063080;28;20558;-67
2023/05/15 12:12:58;;;;;;;2.20;2.00;;;22.00;96.70;;;;;;5066033;28;20550;-68
2023/05/15 12:15:26;;;;;;;2.57;2.20;;;22.30;98.00;;;;;;5072172;28;20457;-68
2023/05/15 12:17:53;;;;;;;2.23;1.93;;;23.00;97.40;;;;;;5072419;28;20582;-67
2023/05/15 12:20:20;;;;;;;2.30;2.00;;;24.10;97.40;;;;;;5072499;28;20557;-68
2023/05/15 12:22:46;;;;;;;2.20;2.00;;;25.10;97.60;;;;;;5060336;28;20464;-68
2023/05/15 12:25:16;;;;;;;2.33;2.13;;;25.80;95.50;;;;;;5052010;28;20472;-68
2023/05/15 12:27:43;;;;;;;2.37;1.80;;;25.60;93.40;;;;;;5063601;28;20477;-68
2023/05/15 12:30:13;;;;;;;2.00;1.90;;;25.00;94.10;;;;;;5059636;28;20463;-68
2023/05/15 12:32:40;;;;;;;2.53;2.20;;;24.70;95.40;;;;;;5071572;28;20949;-68
2023/05/15 12:35:10;;;;;;;2.20;2.00;;;24.50;94.30;;;;;;5060168;28;20606;-68
2023/05/15 12:37:37;;;;;;;2.37;2.17;;;23.90;93.80;;;;;;5059077;28;20479;-68
2023/05/15 12:40:08;;;;;;;2.00;1.90;;;23.30;94.50;;;;;;5060319;28;20866;-68
2023/05/15 12:42:40;;;;;;;2.33;2.23;;;22.60;95.40;;;;;;5060457;28;20465;-69
2023/05/15 12:45:14;;;;;;;2.60;2.37;;;22.10;95.40;;;;;;5051397;28;20464;-68
2023/05/15 12:47:42;;;;;;;2.30;2.10;;;21.70;96.30;;;;;;5054454;28;20482;-68
2023/05/15 12:50:14;;;;;;;2.53;2.27;;;21.50;96.70;;;;;;5065127;28;20542;-68
2023/05/15 12:52:45;;;;;;;2.30;2.07;;;21.30;96.20;;;;;;5052137;28;20482;-69
2023/05/15 12:55:16;;;;;;;2.03;1.93;;;21.40;96.50;;;;;;5051576;28;20487;-67